sensor_id;sensor_type;location;lat;lon;timestamp;temperature;humidity
72814;DHT22;60945;48.516;-2.768;2022-09-09T00:02:00;16.50;79.70
72814;DHT22;60945;48.516;-2.768;2022-09-09T00:09:29;16.40;80.10
72814;DHT22;60945;48.516;-2.768;2022-09-09T00:12:02;16.40;80.30
72814;DHT22;60945;48.516;-2.768;2022-09-09T00:17:34;16.30;80.50
72814;DHT22;60945;48.516;-2.768;2022-09-09T00:20:14;16.20;81.10
72814;DHT22;60945;48.516;-2.768;2022-09-09T00:22:50;16.20;80.90
72814;DHT22;60945;48.516;-2.768;2022-09-09T00:25:23;16.10;81.20
72814;DHT22;60945;48.516;-2.768;2022-09-09T00:27:52;16.10;81.40
72814;DHT22;60945;48.516;-2.768;2022-09-09T00:30:22;16.00;81.80
72814;DHT22;60945;48.516;-2.768;2022-09-09T00:33:32;15.90;82.00
72814;DHT22;60945;48.516;-2.768;2022-09-09T00:35:45;15.90;82.00
72814;DHT22;60945;48.516;-2.768;2022-09-09T00:38:35;15.90;81.80
72814;DHT22;60945;48.516;-2.768;2022-09-09T00:41:06;15.80;82.10
72814;DHT22;60945;48.516;-2.768;2022-09-09T00:43:37;15.80;82.20
72814;DHT22;60945;48.516;-2.768;2022-09-09T00:57:35;15.80;82.30
72814;DHT22;60945;48.516;-2.768;2022-09-09T01:16:38;15.90;82.00
72814;DHT22;60945;48.516;-2.768;2022-09-09T01:19:07;15.90;81.70
72814;DHT22;60945;48.516;-2.768;2022-09-09T01:21:49;16.00;81.50
72814;DHT22;60945;48.516;-2.768;2022-09-09T01:24:25;16.00;81.10
72814;DHT22;60945;48.516;-2.768;2022-09-09T01:26:56;15.90;81.60
72814;DHT22;60945;48.516;-2.768;2022-09-09T01:29:24;15.90;81.50
72814;DHT22;60945;48.516;-2.768;2022-09-09T01:31:59;16.00;81.40
72814;DHT22;60945;48.516;-2.768;2022-09-09T01:34:39;16.00;81.20
72814;DHT22;60945;48.516;-2.768;2022-09-09T01:37:08;16.00;81.50
72814;DHT22;60945;48.516;-2.768;2022-09-09T01:39:36;16.10;80.80
72814;DHT22;60945;48.516;-2.768;2022-09-09T01:42:04;16.00;80.80
72814;DHT22;60945;48.516;-2.768;2022-09-09T01:44:31;15.90;81.50
72814;DHT22;60945;48.516;-2.768;2022-09-09T01:46:57;15.90;81.40
72814;DHT22;60945;48.516;-2.768;2022-09-09T01:49:23;16.00;81.30
72814;DHT22;60945;48.516;-2.768;2022-09-09T01:51:52;16.00;81.60
72814;DHT22;60945;48.516;-2.768;2022-09-09T01:54:21;16.10;81.30
72814;DHT22;60945;48.516;-2.768;2022-09-09T01:57:03;16.10;81.00
72814;DHT22;60945;48.516;-2.768;2022-09-09T02:07:00;16.10;80.90
72814;DHT22;60945;48.516;-2.768;2022-09-09T02:09:27;16.20;80.40
72814;DHT22;60945;48.516;-2.768;2022-09-09T02:12:11;16.20;79.90
72814;DHT22;60945;48.516;-2.768;2022-09-09T02:14:49;16.20;79.80
72814;DHT22;60945;48.516;-2.768;2022-09-09T02:17:21;16.30;79.60
72814;DHT22;60945;48.516;-2.768;2022-09-09T02:19:54;16.20;79.70
72814;DHT22;60945;48.516;-2.768;2022-09-09T02:22:24;16.10;80.00
72814;DHT22;60945;48.516;-2.768;2022-09-09T02:24:53;16.00;80.30
72814;DHT22;60945;48.516;-2.768;2022-09-09T02:27:22;16.00;80.40
72814;DHT22;60945;48.516;-2.768;2022-09-09T02:29:49;15.90;80.60
72814;DHT22;60945;48.516;-2.768;2022-09-09T02:32:20;15.90;80.80
72814;DHT22;60945;48.516;-2.768;2022-09-09T02:34:50;15.90;81.20
72814;DHT22;60945;48.516;-2.768;2022-09-09T02:37:19;15.90;81.20
72814;DHT22;60945;48.516;-2.768;2022-09-09T02:39:46;15.80;81.20
72814;DHT22;60945;48.516;-2.768;2022-09-09T02:42:12;15.80;81.10
72814;DHT22;60945;48.516;-2.768;2022-09-09T02:44:40;15.80;81.30
72814;DHT22;60945;48.516;-2.768;2022-09-09T02:55:45;16.00;81.00
72814;DHT22;60945;48.516;-2.768;2022-09-09T02:58:15;16.00;80.70
72814;DHT22;60945;48.516;-2.768;2022-09-09T03:00:47;16.00;80.90
72814;DHT22;60945;48.516;-2.768;2022-09-09T03:03:13;16.00;81.00
72814;DHT22;60945;48.516;-2.768;2022-09-09T03:05:39;16.10;80.50
72814;DHT22;60945;48.516;-2.768;2022-09-09T03:08:05;16.20;80.30
72814;DHT22;60945;48.516;-2.768;2022-09-09T03:10:32;16.30;79.80
72814;DHT22;60945;48.516;-2.768;2022-09-09T03:12:58;16.30;79.90
72814;DHT22;60945;48.516;-2.768;2022-09-09T03:15:24;16.30;79.50
72814;DHT22;60945;48.516;-2.768;2022-09-09T03:17:54;16.20;79.70
72814;DHT22;60945;48.516;-2.768;2022-09-09T03:20:20;16.20;80.00
72814;DHT22;60945;48.516;-2.768;2022-09-09T03:22:46;16.20;80.30
72814;DHT22;60945;48.516;-2.768;2022-09-09T03:25:12;16.20;80.50
72814;DHT22;60945;48.516;-2.768;2022-09-09T03:27:37;16.20;80.70
72814;DHT22;60945;48.516;-2.768;2022-09-09T03:30:03;16.10;80.70
72814;DHT22;60945;48.516;-2.768;2022-09-09T03:32:29;16.00;81.40
72814;DHT22;60945;48.516;-2.768;2022-09-09T03:34:56;16.00;81.40
72814;DHT22;60945;48.516;-2.768;2022-09-09T03:37:21;16.10;81.30
72814;DHT22;60945;48.516;-2.768;2022-09-09T03:39:48;16.00;81.20
72814;DHT22;60945;48.516;-2.768;2022-09-09T03:42:14;16.00;81.50
72814;DHT22;60945;48.516;-2.768;2022-09-09T03:44:43;15.90;81.50
72814;DHT22;60945;48.516;-2.768;2022-09-09T03:47:11;15.90;81.70
72814;DHT22;60945;48.516;-2.768;2022-09-09T03:49:37;15.80;81.90
72814;DHT22;60945;48.516;-2.768;2022-09-09T03:52:02;15.80;82.00
72814;DHT22;60945;48.516;-2.768;2022-09-09T03:54:28;15.80;82.00
72814;DHT22;60945;48.516;-2.768;2022-09-09T03:56:54;15.80;82.10
72814;DHT22;60945;48.516;-2.768;2022-09-09T03:59:19;15.90;82.10
72814;DHT22;60945;48.516;-2.768;2022-09-09T04:01:46;16.00;81.60
72814;DHT22;60945;48.516;-2.768;2022-09-09T04:04:12;16.10;81.00
72814;DHT22;60945;48.516;-2.768;2022-09-09T04:06:38;16.20;80.90
72814;DHT22;60945;48.516;-2.768;2022-09-09T04:09:03;16.20;81.10
72814;DHT22;60945;48.516;-2.768;2022-09-09T04:11:29;16.00;81.70
72814;DHT22;60945;48.516;-2.768;2022-09-09T04:13:55;16.00;82.30
72814;DHT22;60945;48.516;-2.768;2022-09-09T04:16:20;15.90;82.40
72814;DHT22;60945;48.516;-2.768;2022-09-09T04:18:46;15.90;82.20
72814;DHT22;60945;48.516;-2.768;2022-09-09T04:21:12;15.80;82.40
72814;DHT22;60945;48.516;-2.768;2022-09-09T04:23:38;15.80;82.60
72814;DHT22;60945;48.516;-2.768;2022-09-09T04:26:05;16.00;82.20
72814;DHT22;60945;48.516;-2.768;2022-09-09T04:28:33;16.10;81.30
72814;DHT22;60945;48.516;-2.768;2022-09-09T04:31:21;16.20;81.20
72814;DHT22;60945;48.516;-2.768;2022-09-09T04:33:49;16.10;81.00
72814;DHT22;60945;48.516;-2.768;2022-09-09T04:36:15;16.10;81.00
72814;DHT22;60945;48.516;-2.768;2022-09-09T04:38:41;16.10;81.10
72814;DHT22;60945;48.516;-2.768;2022-09-09T04:41:07;16.20;81.10
72814;DHT22;60945;48.516;-2.768;2022-09-09T04:43:33;16.20;81.00
72814;DHT22;60945;48.516;-2.768;2022-09-09T04:45:59;16.20;81.00
72814;DHT22;60945;48.516;-2.768;2022-09-09T04:48:25;16.20;80.90
72814;DHT22;60945;48.516;-2.768;2022-09-09T04:51:09;16.20;80.90
72814;DHT22;60945;48.516;-2.768;2022-09-09T04:53:35;16.20;80.80
72814;DHT22;60945;48.516;-2.768;2022-09-09T04:56:06;16.20;81.30
72814;DHT22;60945;48.516;-2.768;2022-09-09T04:58:32;16.10;81.20
72814;DHT22;60945;48.516;-2.768;2022-09-09T05:01:09;16.10;81.30
72814;DHT22;60945;48.516;-2.768;2022-09-09T05:03:35;16.00;81.80
72814;DHT22;60945;48.516;-2.768;2022-09-09T05:06:18;15.90;82.00
72814;DHT22;60945;48.516;-2.768;2022-09-09T05:08:44;15.80;82.80
72814;DHT22;60945;48.516;-2.768;2022-09-09T05:11:24;15.70;82.90
72814;DHT22;60945;48.516;-2.768;2022-09-09T05:13:51;15.70;82.80
72814;DHT22;60945;48.516;-2.768;2022-09-09T05:16:18;15.70;83.10
72814;DHT22;60945;48.516;-2.768;2022-09-09T05:18:44;15.60;83.20
72814;DHT22;60945;48.516;-2.768;2022-09-09T05:21:11;15.70;83.30
72814;DHT22;60945;48.516;-2.768;2022-09-09T05:23:38;15.80;82.80
72814;DHT22;60945;48.516;-2.768;2022-09-09T05:26:04;15.80;82.50
72814;DHT22;60945;48.516;-2.768;2022-09-09T05:28:32;15.90;82.50
72814;DHT22;60945;48.516;-2.768;2022-09-09T05:31:09;15.80;82.70
72814;DHT22;60945;48.516;-2.768;2022-09-09T05:33:36;15.80;82.90
72814;DHT22;60945;48.516;-2.768;2022-09-09T05:36:07;15.70;83.40
72814;DHT22;60945;48.516;-2.768;2022-09-09T05:38:34;15.70;83.80
72814;DHT22;60945;48.516;-2.768;2022-09-09T05:41:02;15.80;83.20
72814;DHT22;60945;48.516;-2.768;2022-09-09T05:43:28;15.70;83.40
72814;DHT22;60945;48.516;-2.768;2022-09-09T05:46:09;15.60;83.60
72814;DHT22;60945;48.516;-2.768;2022-09-09T05:48:37;15.60;83.70
72814;DHT22;60945;48.516;-2.768;2022-09-09T05:51:06;15.50;83.80
72814;DHT22;60945;48.516;-2.768;2022-09-09T05:53:35;15.60;83.70
72814;DHT22;60945;48.516;-2.768;2022-09-09T05:56:01;15.60;83.50
72814;DHT22;60945;48.516;-2.768;2022-09-09T05:58:29;15.70;83.40
72814;DHT22;60945;48.516;-2.768;2022-09-09T06:01:06;15.80;82.90
72814;DHT22;60945;48.516;-2.768;2022-09-09T06:03:36;15.90;82.60
72814;DHT22;60945;48.516;-2.768;2022-09-09T06:06:05;15.80;82.50
72814;DHT22;60945;48.516;-2.768;2022-09-09T06:08:36;15.90;82.40
72814;DHT22;60945;48.516;-2.768;2022-09-09T06:11:10;16.00;82.00
72814;DHT22;60945;48.516;-2.768;2022-09-09T06:13:38;16.10;81.60
72814;DHT22;60945;48.516;-2.768;2022-09-09T06:16:08;16.00;81.70
72814;DHT22;60945;48.516;-2.768;2022-09-09T06:18:34;16.00;82.00
72814;DHT22;60945;48.516;-2.768;2022-09-09T06:21:02;16.00;81.80
72814;DHT22;60945;48.516;-2.768;2022-09-09T06:23:32;16.20;81.40
72814;DHT22;60945;48.516;-2.768;2022-09-09T06:26:19;16.20;81.20
72814;DHT22;60945;48.516;-2.768;2022-09-09T06:28:49;16.10;81.60
72814;DHT22;60945;48.516;-2.768;2022-09-09T06:31:22;16.10;81.50
72814;DHT22;60945;48.516;-2.768;2022-09-09T06:33:50;16.20;81.30
72814;DHT22;60945;48.516;-2.768;2022-09-09T06:36:19;16.30;80.80
72814;DHT22;60945;48.516;-2.768;2022-09-09T06:38:45;16.60;80.10
72814;DHT22;60945;48.516;-2.768;2022-09-09T06:41:13;16.70;79.60
72814;DHT22;60945;48.516;-2.768;2022-09-09T06:43:39;16.90;78.60
72814;DHT22;60945;48.516;-2.768;2022-09-09T06:46:08;16.90;78.50
72814;DHT22;60945;48.516;-2.768;2022-09-09T06:48:34;16.90;78.70
72814;DHT22;60945;48.516;-2.768;2022-09-09T06:53:33;16.80;79.00
72814;DHT22;60945;48.516;-2.768;2022-09-09T06:56:00;16.80;78.90
72814;DHT22;60945;48.516;-2.768;2022-09-09T06:58:27;16.90;78.70
72814;DHT22;60945;48.516;-2.768;2022-09-09T07:01:05;17.00;78.50
72814;DHT22;60945;48.516;-2.768;2022-09-09T07:03:31;17.10;78.00
72814;DHT22;60945;48.516;-2.768;2022-09-09T07:05:57;17.30;77.00
72814;DHT22;60945;48.516;-2.768;2022-09-09T07:08:23;17.70;76.10
72814;DHT22;60945;48.516;-2.768;2022-09-09T07:10:50;18.10;74.80
72814;DHT22;60945;48.516;-2.768;2022-09-09T07:13:23;18.50;73.30
72814;DHT22;60945;48.516;-2.768;2022-09-09T07:15:51;18.30;73.40
72814;DHT22;60945;48.516;-2.768;2022-09-09T07:18:16;17.90;74.70
72814;DHT22;60945;48.516;-2.768;2022-09-09T07:20:42;17.80;74.90
72814;DHT22;60945;48.516;-2.768;2022-09-09T07:23:08;18.00;74.50
72814;DHT22;60945;48.516;-2.768;2022-09-09T07:25:33;18.20;73.30
72814;DHT22;60945;48.516;-2.768;2022-09-09T07:27:59;18.40;72.50
72814;DHT22;60945;48.516;-2.768;2022-09-09T07:30:25;18.70;71.60
72814;DHT22;60945;48.516;-2.768;2022-09-09T07:32:51;18.70;71.40
72814;DHT22;60945;48.516;-2.768;2022-09-09T07:35:17;18.80;70.80
72814;DHT22;60945;48.516;-2.768;2022-09-09T07:37:43;18.80;70.80
72814;DHT22;60945;48.516;-2.768;2022-09-09T07:40:10;18.70;71.20
72814;DHT22;60945;48.516;-2.768;2022-09-09T07:42:36;19.10;69.80
72814;DHT22;60945;48.516;-2.768;2022-09-09T07:45:03;19.20;69.50
72814;DHT22;60945;48.516;-2.768;2022-09-09T07:47:29;18.80;70.40
72814;DHT22;60945;48.516;-2.768;2022-09-09T07:49:55;18.40;72.00
72814;DHT22;60945;48.516;-2.768;2022-09-09T07:52:21;18.60;71.40
72814;DHT22;60945;48.516;-2.768;2022-09-09T07:54:48;19.10;70.10
72814;DHT22;60945;48.516;-2.768;2022-09-09T07:57:16;19.20;69.70
72814;DHT22;60945;48.516;-2.768;2022-09-09T07:59:42;19.30;69.80
72814;DHT22;60945;48.516;-2.768;2022-09-09T08:02:09;19.10;70.40
72814;DHT22;60945;48.516;-2.768;2022-09-09T08:04:38;19.10;70.20
72814;DHT22;60945;48.516;-2.768;2022-09-09T08:07:03;19.10;70.50
72814;DHT22;60945;48.516;-2.768;2022-09-09T08:09:29;19.20;70.00
72814;DHT22;60945;48.516;-2.768;2022-09-09T08:11:58;19.20;69.70
72814;DHT22;60945;48.516;-2.768;2022-09-09T08:14:24;19.30;70.20
72814;DHT22;60945;48.516;-2.768;2022-09-09T08:16:50;19.10;70.90
72814;DHT22;60945;48.516;-2.768;2022-09-09T08:19:16;19.20;70.30
72814;DHT22;60945;48.516;-2.768;2022-09-09T08:21:43;19.60;69.00
72814;DHT22;60945;48.516;-2.768;2022-09-09T08:24:10;20.10;67.20
72814;DHT22;60945;48.516;-2.768;2022-09-09T08:26:38;20.60;65.80
72814;DHT22;60945;48.516;-2.768;2022-09-09T08:29:06;21.00;64.30
72814;DHT22;60945;48.516;-2.768;2022-09-09T08:31:36;21.30;63.60
72814;DHT22;60945;48.516;-2.768;2022-09-09T08:34:03;21.40;61.70
72814;DHT22;60945;48.516;-2.768;2022-09-09T08:36:32;21.30;61.50
72814;DHT22;60945;48.516;-2.768;2022-09-09T08:38:59;21.50;61.00
72814;DHT22;60945;48.516;-2.768;2022-09-09T08:46:51;22.80;57.00
72814;DHT22;60945;48.516;-2.768;2022-09-09T08:52:36;22.30;56.70
72814;DHT22;60945;48.516;-2.768;2022-09-09T08:57:58;22.60;57.30
72814;DHT22;60945;48.516;-2.768;2022-09-09T09:00:36;22.50;57.60
72814;DHT22;60945;48.516;-2.768;2022-09-09T09:06:08;23.40;55.00
72814;DHT22;60945;48.516;-2.768;2022-09-09T09:08:44;23.40;54.40
72814;DHT22;60945;48.516;-2.768;2022-09-09T09:11:12;24.00;53.30
72814;DHT22;60945;48.516;-2.768;2022-09-09T09:19:08;25.20;50.50
72814;DHT22;60945;48.516;-2.768;2022-09-09T09:27:18;26.60;46.80
72814;DHT22;60945;48.516;-2.768;2022-09-09T09:29:48;27.00;45.60
72814;DHT22;60945;48.516;-2.768;2022-09-09T09:32:18;27.00;44.90
72814;DHT22;60945;48.516;-2.768;2022-09-09T09:34:51;27.10;45.20
72814;DHT22;60945;48.516;-2.768;2022-09-09T09:37:28;27.00;44.90
72814;DHT22;60945;48.516;-2.768;2022-09-09T09:39:54;27.80;43.60
72814;DHT22;60945;48.516;-2.768;2022-09-09T09:42:20;26.80;45.20
72814;DHT22;60945;48.516;-2.768;2022-09-09T09:44:45;25.50;48.10
72814;DHT22;60945;48.516;-2.768;2022-09-09T09:47:12;24.50;50.20
72814;DHT22;60945;48.516;-2.768;2022-09-09T09:49:38;25.20;50.50
72814;DHT22;60945;48.516;-2.768;2022-09-09T09:52:06;28.50;43.60
72814;DHT22;60945;48.516;-2.768;2022-09-09T09:54:42;31.00;38.50
72814;DHT22;60945;48.516;-2.768;2022-09-09T09:57:12;33.00;35.90
72814;DHT22;60945;48.516;-2.768;2022-09-09T09:59:40;34.60;33.40
72814;DHT22;60945;48.516;-2.768;2022-09-09T10:02:21;35.70;31.60
72814;DHT22;60945;48.516;-2.768;2022-09-09T10:05:00;35.00;32.60
72814;DHT22;60945;48.516;-2.768;2022-09-09T10:07:26;31.20;36.10
72814;DHT22;60945;48.516;-2.768;2022-09-09T10:09:56;28.30;41.20
72814;DHT22;60945;48.516;-2.768;2022-09-09T10:19:08;24.30;53.30
72814;DHT22;60945;48.516;-2.768;2022-09-09T10:35:41;34.20;39.20
72814;DHT22;60945;48.516;-2.768;2022-09-09T10:38:22;32.90;39.80
72814;DHT22;60945;48.516;-2.768;2022-09-09T10:52:04;23.20;61.00
72814;DHT22;60945;48.516;-2.768;2022-09-09T10:57:24;22.10;64.10
72814;DHT22;60945;48.516;-2.768;2022-09-09T10:59:56;22.10;64.70
72814;DHT22;60945;48.516;-2.768;2022-09-09T11:02:30;26.00;56.90
72814;DHT22;60945;48.516;-2.768;2022-09-09T11:07:44;27.40;49.50
72814;DHT22;60945;48.516;-2.768;2022-09-09T11:18:38;26.70;53.40
72814;DHT22;60945;48.516;-2.768;2022-09-09T11:21:07;27.50;50.30
72814;DHT22;60945;48.516;-2.768;2022-09-09T11:23:49;28.10;48.90
72814;DHT22;60945;48.516;-2.768;2022-09-09T11:26:21;33.10;38.90
72814;DHT22;60945;48.516;-2.768;2022-09-09T11:32:05;28.30;45.90
72814;DHT22;60945;48.516;-2.768;2022-09-09T11:42:35;23.80;56.80
72814;DHT22;60945;48.516;-2.768;2022-09-09T11:45:20;23.10;58.20
72814;DHT22;60945;48.516;-2.768;2022-09-09T11:47:58;22.70;62.10
72814;DHT22;60945;48.516;-2.768;2022-09-09T11:52:50;23.20;59.60
72814;DHT22;60945;48.516;-2.768;2022-09-09T11:55:27;23.10;57.90
72814;DHT22;60945;48.516;-2.768;2022-09-09T12:02:58;22.10;58.90
72814;DHT22;60945;48.516;-2.768;2022-09-09T12:05:34;22.00;61.50
72814;DHT22;60945;48.516;-2.768;2022-09-09T12:08:02;21.50;62.00
72814;DHT22;60945;48.516;-2.768;2022-09-09T12:10:33;21.50;63.10
72814;DHT22;60945;48.516;-2.768;2022-09-09T12:13:22;21.40;64.50
72814;DHT22;60945;48.516;-2.768;2022-09-09T12:15:56;21.40;65.80
72814;DHT22;60945;48.516;-2.768;2022-09-09T12:23:40;22.60;61.50
72814;DHT22;60945;48.516;-2.768;2022-09-09T12:31:58;29.20;43.60
72814;DHT22;60945;48.516;-2.768;2022-09-09T12:34:33;34.40;36.40
72814;DHT22;60945;48.516;-2.768;2022-09-09T12:37:24;36.80;31.10
72814;DHT22;60945;48.516;-2.768;2022-09-09T12:40:00;33.80;33.70
72814;DHT22;60945;48.516;-2.768;2022-09-09T12:42:28;30.30;39.70
72814;DHT22;60945;48.516;-2.768;2022-09-09T12:44:59;27.80;42.40
72814;DHT22;60945;48.516;-2.768;2022-09-09T12:47:37;27.20;44.20
72814;DHT22;60945;48.516;-2.768;2022-09-09T12:50:15;25.90;46.90
72814;DHT22;60945;48.516;-2.768;2022-09-09T12:52:42;24.90;51.10
72814;DHT22;60945;48.516;-2.768;2022-09-09T12:55:17;24.20;52.10
72814;DHT22;60945;48.516;-2.768;2022-09-09T12:57:44;25.90;48.40
72814;DHT22;60945;48.516;-2.768;2022-09-09T13:00:14;25.20;49.60
72814;DHT22;60945;48.516;-2.768;2022-09-09T13:02:55;24.80;51.70
72814;DHT22;60945;48.516;-2.768;2022-09-09T13:05:24;26.40;51.90
72814;DHT22;60945;48.516;-2.768;2022-09-09T13:07:50;33.90;35.60
72814;DHT22;60945;48.516;-2.768;2022-09-09T13:10:28;36.10;32.20
72814;DHT22;60945;48.516;-2.768;2022-09-09T13:12:55;34.20;33.70
72814;DHT22;60945;48.516;-2.768;2022-09-09T13:15:24;32.40;35.60
72814;DHT22;60945;48.516;-2.768;2022-09-09T13:17:57;32.40;38.00
72814;DHT22;60945;48.516;-2.768;2022-09-09T13:20:26;34.00;35.10
72814;DHT22;60945;48.516;-2.768;2022-09-09T13:22:53;32.90;34.80
72814;DHT22;60945;48.516;-2.768;2022-09-09T13:25:24;30.70;36.80
72814;DHT22;60945;48.516;-2.768;2022-09-09T13:28:00;29.40;40.50
72814;DHT22;60945;48.516;-2.768;2022-09-09T13:30:33;35.60;31.80
72814;DHT22;60945;48.516;-2.768;2022-09-09T13:36:09;40.60;25.00
72814;DHT22;60945;48.516;-2.768;2022-09-09T13:38:38;34.40;31.40
72814;DHT22;60945;48.516;-2.768;2022-09-09T13:41:08;31.10;36.50
72814;DHT22;60945;48.516;-2.768;2022-09-09T13:43:43;29.10;40.40
72814;DHT22;60945;48.516;-2.768;2022-09-09T13:46:32;34.50;33.20
72814;DHT22;60945;48.516;-2.768;2022-09-09T13:51:46;33.10;32.80
72814;DHT22;60945;48.516;-2.768;2022-09-09T13:54:14;34.40;31.10
72814;DHT22;60945;48.516;-2.768;2022-09-09T13:56:42;37.60;29.00
72814;DHT22;60945;48.516;-2.768;2022-09-09T13:59:16;40.70;25.50
72814;DHT22;60945;48.516;-2.768;2022-09-09T14:01:42;42.50;23.50
72814;DHT22;60945;48.516;-2.768;2022-09-09T14:04:08;43.70;22.80
72814;DHT22;60945;48.516;-2.768;2022-09-09T14:06:35;39.00;25.30
72814;DHT22;60945;48.516;-2.768;2022-09-09T14:09:06;40.10;25.30
72814;DHT22;60945;48.516;-2.768;2022-09-09T14:11:32;43.50;23.10
72814;DHT22;60945;48.516;-2.768;2022-09-09T14:13:57;42.20;23.10
72814;DHT22;60945;48.516;-2.768;2022-09-09T14:16:23;35.90;28.20
72814;DHT22;60945;48.516;-2.768;2022-09-09T14:18:49;33.80;31.70
72814;DHT22;60945;48.516;-2.768;2022-09-09T14:21:14;36.90;27.80
72814;DHT22;60945;48.516;-2.768;2022-09-09T14:23:41;36.70;27.00
72814;DHT22;60945;48.516;-2.768;2022-09-09T14:26:07;33.70;31.10
72814;DHT22;60945;48.516;-2.768;2022-09-09T14:28:33;31.80;34.10
72814;DHT22;60945;48.516;-2.768;2022-09-09T14:31:00;29.90;36.70
72814;DHT22;60945;48.516;-2.768;2022-09-09T14:33:26;28.70;38.90
72814;DHT22;60945;48.516;-2.768;2022-09-09T14:36:00;27.90;40.70
72814;DHT22;60945;48.516;-2.768;2022-09-09T14:38:29;26.70;42.30
72814;DHT22;60945;48.516;-2.768;2022-09-09T14:40:55;26.30;43.40
72814;DHT22;60945;48.516;-2.768;2022-09-09T14:43:21;28.50;38.50
72814;DHT22;60945;48.516;-2.768;2022-09-09T14:45:47;28.30;39.30
72814;DHT22;60945;48.516;-2.768;2022-09-09T14:48:14;29.60;37.30
72814;DHT22;60945;48.516;-2.768;2022-09-09T14:50:41;28.40;38.70
72814;DHT22;60945;48.516;-2.768;2022-09-09T14:53:07;27.40;40.80
72814;DHT22;60945;48.516;-2.768;2022-09-09T14:55:34;29.20;37.80
72814;DHT22;60945;48.516;-2.768;2022-09-09T14:58:00;28.50;39.40
72814;DHT22;60945;48.516;-2.768;2022-09-09T15:00:26;27.40;41.90
72814;DHT22;60945;48.516;-2.768;2022-09-09T15:02:55;26.50;43.00
72814;DHT22;60945;48.516;-2.768;2022-09-09T15:05:21;25.70;45.00
72814;DHT22;60945;48.516;-2.768;2022-09-09T15:07:47;25.20;46.50
72814;DHT22;60945;48.516;-2.768;2022-09-09T15:10:16;24.60;47.70
72814;DHT22;60945;48.516;-2.768;2022-09-09T15:12:43;23.90;49.30
72814;DHT22;60945;48.516;-2.768;2022-09-09T15:15:09;23.60;51.00
72814;DHT22;60945;48.516;-2.768;2022-09-09T15:17:35;23.70;50.70
72814;DHT22;60945;48.516;-2.768;2022-09-09T15:20:03;23.80;51.00
72814;DHT22;60945;48.516;-2.768;2022-09-09T15:22:28;23.90;50.10
72814;DHT22;60945;48.516;-2.768;2022-09-09T15:24:54;24.20;50.40
72814;DHT22;60945;48.516;-2.768;2022-09-09T15:27:20;24.40;49.30
72814;DHT22;60945;48.516;-2.768;2022-09-09T15:29:45;24.50;48.80
72814;DHT22;60945;48.516;-2.768;2022-09-09T15:32:12;24.50;48.80
72814;DHT22;60945;48.516;-2.768;2022-09-09T15:34:37;24.50;49.30
72814;DHT22;60945;48.516;-2.768;2022-09-09T15:37:03;24.40;49.30
72814;DHT22;60945;48.516;-2.768;2022-09-09T15:39:31;24.20;49.20
72814;DHT22;60945;48.516;-2.768;2022-09-09T15:41:57;24.30;49.20
72814;DHT22;60945;48.516;-2.768;2022-09-09T15:44:22;24.30;48.70
72814;DHT22;60945;48.516;-2.768;2022-09-09T15:46:52;24.20;49.40
72814;DHT22;60945;48.516;-2.768;2022-09-09T15:49:24;24.10;49.10
72814;DHT22;60945;48.516;-2.768;2022-09-09T15:52:00;23.80;50.60
72814;DHT22;60945;48.516;-2.768;2022-09-09T15:54:34;23.70;50.60
72814;DHT22;60945;48.516;-2.768;2022-09-09T15:57:03;23.80;50.90
72814;DHT22;60945;48.516;-2.768;2022-09-09T15:59:30;23.30;51.30
72814;DHT22;60945;48.516;-2.768;2022-09-09T16:01:57;22.80;51.70
72814;DHT22;60945;48.516;-2.768;2022-09-09T16:04:24;22.70;51.70
72814;DHT22;60945;48.516;-2.768;2022-09-09T16:06:55;22.60;51.30
72814;DHT22;60945;48.516;-2.768;2022-09-09T16:09:22;22.50;51.80
72814;DHT22;60945;48.516;-2.768;2022-09-09T16:11:48;22.50;51.50
72814;DHT22;60945;48.516;-2.768;2022-09-09T16:14:14;22.50;51.20
72814;DHT22;60945;48.516;-2.768;2022-09-09T16:16:41;22.30;52.10
72814;DHT22;60945;48.516;-2.768;2022-09-09T16:19:09;21.90;53.70
72814;DHT22;60945;48.516;-2.768;2022-09-09T16:21:46;21.90;54.20
72814;DHT22;60945;48.516;-2.768;2022-09-09T16:24:15;21.60;55.50
72814;DHT22;60945;48.516;-2.768;2022-09-09T16:26:48;21.60;56.60
72814;DHT22;60945;48.516;-2.768;2022-09-09T16:29:14;21.70;56.50
72814;DHT22;60945;48.516;-2.768;2022-09-09T16:31:41;21.80;57.20
72814;DHT22;60945;48.516;-2.768;2022-09-09T16:34:07;21.70;56.80
72814;DHT22;60945;48.516;-2.768;2022-09-09T16:36:36;21.40;57.10
72814;DHT22;60945;48.516;-2.768;2022-09-09T16:39:10;21.10;58.30
72814;DHT22;60945;48.516;-2.768;2022-09-09T16:41:36;21.00;58.60
72814;DHT22;60945;48.516;-2.768;2022-09-09T16:44:07;21.00;59.10
72814;DHT22;60945;48.516;-2.768;2022-09-09T16:46:38;21.00;58.80
72814;DHT22;60945;48.516;-2.768;2022-09-09T16:49:07;20.90;59.70
72814;DHT22;60945;48.516;-2.768;2022-09-09T16:51:41;20.70;60.00
72814;DHT22;60945;48.516;-2.768;2022-09-09T16:54:08;20.90;59.10
72814;DHT22;60945;48.516;-2.768;2022-09-09T16:56:39;21.10;59.30
72814;DHT22;60945;48.516;-2.768;2022-09-09T16:59:13;21.10;59.10
72814;DHT22;60945;48.516;-2.768;2022-09-09T17:01:40;20.90;59.70
72814;DHT22;60945;48.516;-2.768;2022-09-09T17:04:15;20.70;60.00
72814;DHT22;60945;48.516;-2.768;2022-09-09T17:06:47;20.60;60.60
72814;DHT22;60945;48.516;-2.768;2022-09-09T17:09:15;20.40;61.40
72814;DHT22;60945;48.516;-2.768;2022-09-09T17:11:41;20.30;62.10
72814;DHT22;60945;48.516;-2.768;2022-09-09T17:14:08;20.20;62.00
72814;DHT22;60945;48.516;-2.768;2022-09-09T17:16:35;20.10;62.20
72814;DHT22;60945;48.516;-2.768;2022-09-09T17:19:02;20.00;62.90
72814;DHT22;60945;48.516;-2.768;2022-09-09T17:21:29;20.00;63.60
72814;DHT22;60945;48.516;-2.768;2022-09-09T17:23:56;19.80;63.80
72814;DHT22;60945;48.516;-2.768;2022-09-09T17:26:28;19.70;63.40
72814;DHT22;60945;48.516;-2.768;2022-09-09T17:28:54;19.50;63.90
72814;DHT22;60945;48.516;-2.768;2022-09-09T17:31:21;19.50;63.50
72814;DHT22;60945;48.516;-2.768;2022-09-09T17:33:49;19.40;64.00
72814;DHT22;60945;48.516;-2.768;2022-09-09T17:36:22;19.30;63.80
72814;DHT22;60945;48.516;-2.768;2022-09-09T17:38:48;19.40;64.60
72814;DHT22;60945;48.516;-2.768;2022-09-09T17:41:20;19.40;63.10
72814;DHT22;60945;48.516;-2.768;2022-09-09T17:43:46;19.30;63.60
72814;DHT22;60945;48.516;-2.768;2022-09-09T17:46:16;19.40;63.60
72814;DHT22;60945;48.516;-2.768;2022-09-09T17:48:43;19.30;63.80
72814;DHT22;60945;48.516;-2.768;2022-09-09T17:51:13;19.20;64.10
72814;DHT22;60945;48.516;-2.768;2022-09-09T17:53:42;19.20;64.20
72814;DHT22;60945;48.516;-2.768;2022-09-09T17:56:09;19.10;65.10
72814;DHT22;60945;48.516;-2.768;2022-09-09T17:58:35;19.00;65.50
72814;DHT22;60945;48.516;-2.768;2022-09-09T18:01:07;19.00;66.50
72814;DHT22;60945;48.516;-2.768;2022-09-09T18:03:34;18.90;66.70
72814;DHT22;60945;48.516;-2.768;2022-09-09T18:06:06;18.80;66.40
72814;DHT22;60945;48.516;-2.768;2022-09-09T18:08:32;18.80;66.80
72814;DHT22;60945;48.516;-2.768;2022-09-09T18:11:01;18.70;67.60